Time;durP1;ratioP1;P1;durP2;ratioP2;P2;SDS_P1;SDS_P2;PMS_P1;PMS_P2;Temp;Humidity;BMP_temperature;BMP_pressure;BME280_temperature;BME280_humidity;BME280_pressure;Samples;Min_cycle;Max_cycle;Signal;HPM_P1;HPM_P2
2022/03/04 00:05:13;;;;;;;28.65;14.50;;;1.90;99.90;;;;;;5154696;27;20038;-70
2022/03/04 00:10:39;;;;;;;27.13;12.60;;;1.90;99.90;;;;;;5141022;27;20038;-70
2022/03/04 00:13:34;;;;;;;23.85;13.00;;;1.90;99.90;;;;;;5145695;27;20038;-71
2022/03/04 00:16:03;;;;;;;25.70;12.98;;;1.90;99.90;;;;;;5148273;27;20043;-70
2022/03/04 00:18:35;;;;;;;24.75;13.23;;;1.80;99.90;;;;;;5149803;27;20374;-70
2022/03/04 00:21:06;;;;;;;23.27;12.50;;;1.80;99.90;;;;;;5148461;27;20083;-71
2022/03/04 00:23:54;;;;;;;25.23;13.45;;;1.80;99.90;;;;;;5146740;27;20103;-70
2022/03/04 00:26:36;;;;;;;23.00;12.65;;;1.80;99.90;;;;;;5148290;27;20525;-70
2022/03/04 00:29:30;;;;;;;24.77;13.25;;;1.80;99.90;;;;;;5148205;27;20390;-71
2022/03/04 00:32:52;;;;;;;27.95;13.75;;;1.80;99.90;;;;;;5104988;27;20487;-70
2022/03/04 00:35:18;;;;;;;29.20;13.93;;;1.70;99.90;;;;;;5149056;27;20037;-70
2022/03/04 00:38:04;;;;;;;22.48;11.77;;;1.70;99.90;;;;;;5148533;27;20043;-70
2022/03/04 00:40:33;;;;;;;24.25;12.63;;;1.70;99.90;;;;;;5153249;27;20034;-70
2022/03/04 00:43:04;;;;;;;23.80;12.60;;;1.60;99.90;;;;;;5151633;27;20071;-71
2022/03/04 00:45:40;;;;;;;23.65;12.10;;;1.60;99.90;;;;;;5152149;27;20034;-70
2022/03/04 00:48:24;;;;;;;23.23;12.80;;;1.60;99.90;;;;;;5144874;27;20053;-71
2022/03/04 00:50:49;;;;;;;24.65;13.05;;;1.60;99.90;;;;;;5151496;27;20042;-70
2022/03/04 00:53:32;;;;;;;26.00;12.65;;;1.50;99.90;;;;;;5150803;27;20095;-70
2022/03/04 00:59:02;;;;;;;21.55;11.65;;;1.50;99.90;;;;;;5150365;27;20572;-70
2022/03/04 01:01:28;;;;;;;21.30;11.55;;;1.40;99.90;;;;;;5165112;27;20046;-70
2022/03/04 01:04:26;;;;;;;24.17;11.65;;;1.40;99.90;;;;;;5148053;27;20042;-70
2022/03/04 01:06:59;;;;;;;25.38;11.10;;;1.40;99.90;;;;;;5071316;27;20053;-70
2022/03/04 01:09:25;;;;;;;23.23;11.63;;;1.40;99.90;;;;;;5154661;27;20038;-70
2022/03/04 01:12:15;;;;;;;20.23;11.73;;;1.30;99.90;;;;;;5150827;27;20037;-71
2022/03/04 01:14:57;;;;;;;21.90;11.52;;;1.30;99.90;;;;;;5148966;27;20046;-70
2022/03/04 01:17:32;;;;;;;22.30;11.27;;;1.30;99.90;;;;;;5149827;27;20069;-70
2022/03/04 01:20:27;;;;;;;23.52;11.30;;;1.30;99.90;;;;;;5150638;27;20039;-71
2022/03/04 01:23:26;;;;;;;19.88;10.82;;;1.20;99.90;;;;;;5147622;27;20051;-70
2022/03/04 01:26:01;;;;;;;21.25;10.50;;;1.20;99.90;;;;;;5144617;27;20043;-70
2022/03/04 01:28:50;;;;;;;22.50;10.98;;;1.20;99.90;;;;;;5149727;27;20047;-70
2022/03/04 01:31:49;;;;;;;20.77;10.80;;;1.20;99.90;;;;;;5150497;27;20035;-70
2022/03/04 01:34:38;;;;;;;20.70;10.40;;;1.10;99.90;;;;;;5150401;27;20064;-70
2022/03/04 01:37:17;;;;;;;17.65;9.82;;;1.00;99.90;;;;;;5149273;27;20042;-70
2022/03/04 01:39:55;;;;;;;20.45;10.25;;;0.90;99.90;;;;;;5152751;27;20452;-70
2022/03/04 01:42:56;;;;;;;19.55;10.95;;;0.90;99.90;;;;;;5149173;27;20153;-70
2022/03/04 01:45:46;;;;;;;18.40;9.95;;;0.90;99.90;;;;;;5151352;27;20038;-70
2022/03/04 01:48:38;;;;;;;19.83;10.35;;;0.90;99.90;;;;;;5150289;27;20070;-70
2022/03/04 01:54:15;;;;;;;20.27;10.20;;;0.90;99.90;;;;;;5150181;27;20043;-70
2022/03/04 01:56:49;;;;;;;18.42;9.60;;;0.90;99.90;;;;;;5149761;27;20047;-70
2022/03/04 01:59:24;;;;;;;20.65;10.07;;;0.80;99.90;;;;;;5149471;27;20041;-70
2022/03/04 02:01:58;;;;;;;17.58;9.70;;;0.80;99.90;;;;;;5148408;27;20175;-70
2022/03/04 02:05:25;;;;;;;19.70;10.40;;;0.80;99.90;;;;;;5145285;27;20055;-70
2022/03/04 02:07:51;;;;;;;16.83;9.55;;;0.80;99.90;;;;;;5144805;27;20043;-71
2022/03/04 02:10:54;;;;;;;20.55;9.93;;;0.70;99.90;;;;;;5150438;27;20038;-71
2022/03/04 02:14:03;;;;;;;20.00;9.77;;;0.70;99.90;;;;;;5151178;27;20087;-70
2022/03/04 02:16:56;;;;;;;19.05;9.77;;;0.70;99.90;;;;;;5132125;27;20077;-70
2022/03/04 02:22:42;;;;;;;18.52;9.90;;;0.70;99.90;;;;;;5148869;27;20042;-70
2022/03/04 02:25:16;;;;;;;18.80;9.55;;;0.60;99.90;;;;;;5151933;27;20046;-70
2022/03/04 02:28:11;;;;;;;20.13;10.52;;;0.60;99.90;;;;;;5149914;27;20038;-71
2022/03/04 02:30:48;;;;;;;17.38;9.38;;;0.60;99.90;;;;;;5141848;27;20133;-70
2022/03/04 02:33:26;;;;;;;16.80;9.70;;;0.50;99.90;;;;;;5148305;27;20051;-70
2022/03/04 02:36:18;;;;;;;19.92;10.57;;;0.50;99.90;;;;;;5148043;27;20143;-70
2022/03/04 02:45:30;;;;;;;23.90;10.02;;;0.40;99.90;;;;;;5149158;27;20046;-70
2022/03/04 02:47:58;;;;;;;22.65;11.48;;;0.40;99.90;;;;;;5145137;27;20039;-70
2022/03/04 02:50:34;;;;;;;17.65;10.55;;;0.30;99.90;;;;;;5146045;27;20039;-69
2022/03/04 02:52:59;;;;;;;21.17;10.83;;;0.30;99.90;;;;;;5148767;27;20083;-70
2022/03/04 02:55:30;;;;;;;20.60;10.63;;;0.30;99.90;;;;;;5147714;27;20043;-70
2022/03/04 02:58:16;;;;;;;22.80;11.13;;;0.30;99.90;;;;;;5149857;27;20035;-70
2022/03/04 03:01:00;;;;;;;21.40;11.07;;;0.30;99.90;;;;;;5149399;27;20087;-69
2022/03/04 03:03:49;;;;;;;19.88;10.15;;;0.30;99.90;;;;;;5148701;27;20038;-70
2022/03/04 03:06:53;;;;;;;21.83;11.95;;;0.20;99.90;;;;;;5149422;27;20118;-70
2022/03/04 03:09:51;;;;;;;23.33;10.93;;;0.20;99.90;;;;;;5145572;27;20061;-70
2022/03/04 03:12:26;;;;;;;19.65;10.98;;;0.20;99.90;;;;;;5148969;27;20047;-70
2022/03/04 03:15:08;;;;;;;22.80;11.23;;;0.20;99.90;;;;;;5131380;27;20423;-70
2022/03/04 03:17:39;;;;;;;23.75;11.60;;;0.20;99.90;;;;;;5149092;27;20039;-70
2022/03/04 03:20:33;;;;;;;20.50;11.43;;;0.20;99.90;;;;;;5147956;27;20030;-70
2022/03/04 03:23:28;;;;;;;23.20;11.65;;;0.20;99.90;;;;;;5136880;27;20080;-70
2022/03/04 03:26:11;;;;;;;24.20;11.93;;;0.10;99.90;;;;;;5148369;27;20081;-70
2022/03/04 03:28:53;;;;;;;25.80;12.10;;;0.00;99.90;;;;;;5147554;27;20125;-69
2022/03/04 03:31:30;;;;;;;24.33;11.93;;;0.00;99.90;;;;;;5148935;27;20121;-70
2022/03/04 03:34:06;;;;;;;26.05;12.52;;;0.00;99.90;;;;;;5130423;27;20108;-70
2022/03/04 03:36:43;;;;;;;24.33;11.88;;;0.00;99.90;;;;;;5146846;27;20400;-70
2022/03/04 03:39:13;;;;;;;;;;;0.00;99.90;;;;;;5148973;27;20039;-70
2022/03/04 03:42:11;;;;;;;26.05;11.63;;;-0.10;99.90;;;;;;5150467;27;19923;-70
2022/03/04 03:44:36;;;;;;;24.35;11.73;;;-0.10;99.90;;;;;;5048774;28;20056;-70
2022/03/04 03:47:13;;;;;;;23.98;11.40;;;-0.10;99.90;;;;;;5063544;28;20048;-70
2022/03/04 03:49:50;;;;;;;21.98;11.65;;;-0.10;99.90;;;;;;5032674;28;20048;-70
2022/03/04 03:52:34;;;;;;;29.45;13.77;;;-0.10;99.90;;;;;;5049390;28;20040;-70
2022/03/04 03:55:11;;;;;;;27.38;12.85;;;-0.10;99.90;;;;;;5049488;28;20389;-70
2022/03/04 03:58:09;;;;;;;26.10;13.43;;;-0.20;99.90;;;;;;5064927;28;20124;-70
2022/03/04 04:04:12;;;;;;;25.75;13.05;;;-0.20;99.90;;;;;;5145578;27;20039;-71
2022/03/04 04:07:10;;;;;;;24.40;12.77;;;-0.30;99.90;;;;;;5148647;27;20409;-70
2022/03/04 04:09:51;;;;;;;27.15;13.95;;;-0.30;99.90;;;;;;5146270;27;20069;-71
2022/03/04 04:12:26;;;;;;;28.20;13.48;;;-0.30;99.90;;;;;;5143830;27;20091;-70
2022/03/04 04:15:04;;;;;;;29.23;14.07;;;-0.30;99.90;;;;;;5146077;27;20061;-71
2022/03/04 04:17:49;;;;;;;27.55;13.30;;;-0.30;99.90;;;;;;5145978;27;20299;-70
2022/03/04 04:20:18;;;;;;;28.05;13.80;;;-0.40;99.90;;;;;;5147469;27;20113;-70
2022/03/04 04:23:02;;;;;;;29.73;14.05;;;-0.40;99.90;;;;;;5143116;27;20058;-70
2022/03/04 04:25:51;;;;;;;32.15;15.15;;;-0.40;99.90;;;;;;5145709;27;20047;-70
2022/03/04 04:28:17;;;;;;;27.95;14.68;;;-0.50;99.90;;;;;;5133451;27;20099;-70
2022/03/04 04:31:20;;;;;;;29.42;14.13;;;-0.50;99.90;;;;;;5145771;27;21526;-70
2022/03/04 04:34:15;;;;;;;29.27;14.75;;;-0.50;99.90;;;;;;5143579;27;20051;-70
2022/03/04 04:36:44;;;;;;;30.30;14.68;;;-0.60;99.90;;;;;;5136796;27;20119;-70
2022/03/04 04:39:20;;;;;;;30.48;15.57;;;-0.60;99.90;;;;;;5145760;27;20043;-70
2022/03/04 04:41:56;;;;;;;32.50;15.85;;;-0.60;99.90;;;;;;5145254;27;20038;-70
2022/03/04 04:44:39;;;;;;;32.95;15.73;;;-0.60;99.90;;;;;;5145301;27;20098;-70
2022/03/04 04:47:09;;;;;;;32.78;15.25;;;-0.70;99.90;;;;;;5145852;27;20108;-70
2022/03/04 04:49:48;;;;;;;31.30;15.57;;;-0.70;99.90;;;;;;5146744;27;20054;-70
2022/03/04 04:52:14;;;;;;;34.10;15.25;;;-0.70;99.90;;;;;;5147458;27;20507;-70
2022/03/04 04:54:52;;;;;;;31.63;15.32;;;-0.70;99.90;;;;;;5146157;27;20055;-70
2022/03/04 04:57:27;;;;;;;30.42;15.80;;;-0.70;99.90;;;;;;5148296;27;20360;-70
2022/03/04 05:05:51;;;;;;;35.92;17.60;;;-0.60;99.90;;;;;;5148420;27;20035;-70
2022/03/04 05:11:31;;;;;;;34.15;16.15;;;-0.80;99.90;;;;;;5146513;27;20051;-70
2022/03/04 05:14:06;;;;;;;34.10;17.35;;;-0.80;99.90;;;;;;5144757;27;20061;-70
2022/03/04 05:16:44;;;;;;;34.80;16.92;;;-0.90;99.90;;;;;;5143761;27;20051;-70
2022/03/04 05:19:25;;;;;;;29.73;16.83;;;-0.90;99.90;;;;;;5147514;27;20172;-70
2022/03/04 05:22:32;;;;;;;35.38;17.35;;;-0.90;99.90;;;;;;5148774;27;20079;-70
2022/03/04 05:28:34;;;;;;;35.75;17.15;;;-1.00;99.90;;;;;;5149089;27;20042;-70
2022/03/04 05:31:08;;;;;;;34.70;17.83;;;-1.00;99.90;;;;;;5151913;27;20094;-70
2022/03/04 05:33:45;;;;;;;34.03;18.00;;;-1.00;99.90;;;;;;5149242;27;20062;-70
2022/03/04 05:36:19;;;;;;;39.47;19.20;;;-1.00;99.90;;;;;;5148692;27;20035;-70
2022/03/04 05:38:57;;;;;;;41.40;19.73;;;-1.10;99.90;;;;;;5150428;27;20134;-70
2022/03/04 05:41:31;;;;;;;39.00;18.95;;;-1.10;99.90;;;;;;5150695;27;20026;-70
2022/03/04 05:44:14;;;;;;;41.95;19.58;;;-0.80;99.90;;;;;;5133275;27;20054;-70
2022/03/04 05:46:59;;;;;;;38.05;19.05;;;-1.10;99.90;;;;;;5149808;27;20126;-70
2022/03/04 05:49:46;;;;;;;38.50;18.98;;;-1.10;99.90;;;;;;5151906;27;20038;-69
2022/03/04 05:52:33;;;;;;;39.60;18.77;;;-1.10;99.90;;;;;;5149472;27;20070;-70
2022/03/04 05:55:12;;;;;;;42.55;20.13;;;-1.10;99.90;;;;;;5133832;27;20042;-70
2022/03/04 05:57:43;;;;;;;42.00;20.40;;;-1.10;99.90;;;;;;5166624;27;20039;-70
2022/03/04 06:00:21;;;;;;;41.60;20.25;;;-1.10;99.90;;;;;;5148873;27;20023;-70
2022/03/04 06:03:24;;;;;;;38.67;20.83;;;-1.10;99.90;;;;;;5149807;27;20042;-70
2022/03/04 06:06:11;;;;;;;46.03;21.02;;;-1.10;99.90;;;;;;5150864;27;20026;-70
2022/03/04 06:09:03;;;;;;;47.60;21.63;;;-1.10;99.90;;;;;;5145834;27;20045;-69
2022/03/04 06:11:48;;;;;;;42.08;21.40;;;-1.10;99.90;;;;;;5133742;27;20046;-70
2022/03/04 06:14:45;;;;;;;46.72;21.10;;;-1.00;99.90;;;;;;5131428;27;20054;-70
2022/03/04 06:17:29;;;;;;;46.05;22.70;;;-1.00;99.90;;;;;;5149662;27;20066;-70
2022/03/04 06:19:58;;;;;;;46.22;20.77;;;-1.00;99.90;;;;;;5149922;27;20057;-70
2022/03/04 06:25:19;;;;;;;48.55;22.55;;;-0.90;99.90;;;;;;5142175;27;20055;-70
2022/03/04 06:28:44;;;;;;;45.53;21.85;;;-0.90;99.90;;;;;;5148796;27;20053;-70
2022/03/04 06:31:54;;;;;;;43.42;21.63;;;-0.90;99.90;;;;;;5078338;27;20085;-70
2022/03/04 06:34:40;;;;;;;41.00;20.50;;;-0.90;99.90;;;;;;5149825;27;20111;-70
2022/03/04 06:37:50;;;;;;;44.33;21.80;;;-0.80;99.90;;;;;;5149074;27;20038;-70
2022/03/04 06:40:35;;;;;;;44.47;21.25;;;-0.80;99.90;;;;;;5149691;27;20081;-70
2022/03/04 06:43:25;;;;;;;41.17;20.98;;;-0.70;99.90;;;;;;5147342;27;20035;-68
2022/03/04 06:46:06;;;;;;;41.03;21.13;;;-0.70;99.90;;;;;;5149846;27;20031;-69
2022/03/04 06:48:38;;;;;;;43.55;21.55;;;-0.80;99.90;;;;;;5148544;27;20064;-69
2022/03/04 06:51:15;;;;;;;46.20;21.45;;;-0.70;99.90;;;;;;5150130;27;20046;-68
2022/03/04 07:00:24;;;;;;;45.63;21.08;;;-0.70;99.90;;;;;;5138396;27;20495;-68
2022/03/04 07:03:23;;;;;;;43.70;21.63;;;-0.70;99.90;;;;;;5148407;27;20103;-68
2022/03/04 07:05:57;;;;;;;47.38;22.77;;;-0.60;99.90;;;;;;5147906;27;20054;-69
2022/03/04 07:08:44;;;;;;;49.25;22.85;;;-0.60;99.90;;;;;;5149907;27;20492;-68
2022/03/04 07:11:31;;;;;;;42.03;20.38;;;-0.70;99.90;;;;;;5148891;27;20038;-68
2022/03/04 07:14:12;;;;;;;46.92;21.60;;;-0.70;99.90;;;;;;5147742;27;20103;-69
2022/03/04 07:16:52;;;;;;;48.22;22.10;;;-0.60;99.90;;;;;;5146452;27;20057;-68
2022/03/04 07:19:34;;;;;;;40.85;20.85;;;-0.50;99.90;;;;;;5149962;27;20043;-68
2022/03/04 07:22:16;;;;;;;42.67;21.20;;;-0.50;99.90;;;;;;5148881;27;20038;-70
2022/03/04 07:28:05;;;;;;;50.47;23.17;;;-0.50;99.90;;;;;;5132003;27;20052;-69
2022/03/04 07:30:52;;;;;;;48.15;23.02;;;-0.40;99.90;;;;;;5163583;27;20154;-69
2022/03/04 07:33:42;;;;;;;51.30;22.50;;;-0.40;99.90;;;;;;5149352;27;20039;-70
2022/03/04 07:36:09;;;;;;;48.63;24.02;;;-0.30;99.90;;;;;;5147749;27;20038;-69
2022/03/04 07:38:59;;;;;;;43.80;20.55;;;-0.30;99.90;;;;;;5148715;27;20118;-70
2022/03/04 07:41:35;;;;;;;50.50;22.90;;;-0.20;99.90;;;;;;5104166;27;20126;-70
2022/03/04 07:44:07;;;;;;;45.22;22.98;;;-0.20;99.90;;;;;;5146423;27;20038;-69
2022/03/04 07:46:51;;;;;;;46.13;21.95;;;-0.20;99.90;;;;;;5145661;27;20041;-70
2022/03/04 07:49:31;;;;;;;44.15;21.40;;;-0.20;99.90;;;;;;5146931;27;20490;-70
2022/03/04 07:55:16;;;;;;;45.13;22.20;;;-0.20;99.90;;;;;;5142210;27;20039;-70
2022/03/04 07:57:51;;;;;;;45.03;22.10;;;-0.10;99.90;;;;;;5147176;27;20407;-70
2022/03/04 08:00:54;;;;;;;50.47;23.65;;;-0.10;99.90;;;;;;5147218;27;20463;-69
2022/03/04 08:03:26;;;;;;;50.03;23.90;;;-0.10;99.90;;;;;;5147182;27;20395;-70
2022/03/04 08:06:40;;;;;;;48.88;23.52;;;-0.10;99.90;;;;;;5146035;27;20106;-70
2022/03/04 08:12:50;;;;;;;51.10;24.38;;;0.00;99.90;;;;;;5134135;27;20272;-69
2022/03/04 08:15:27;;;;;;;50.83;23.75;;;0.10;99.90;;;;;;5147027;27;20392;-69
2022/03/04 08:18:02;;;;;;;49.20;23.55;;;0.20;99.90;;;;;;5147671;27;20439;-70
2022/03/04 08:24:00;;;;;;;46.83;23.20;;;0.20;99.90;;;;;;5136288;27;20095;-69
2022/03/04 08:26:44;;;;;;;49.28;25.27;;;0.30;99.90;;;;;;5146960;27;20038;-69
2022/03/04 08:29:53;;;;;;;47.10;23.10;;;0.30;99.90;;;;;;5145997;27;20430;-69
2022/03/04 08:32:24;;;;;;;47.00;23.05;;;0.30;99.90;;;;;;5146440;27;20086;-70
2022/03/04 08:34:53;;;;;;;48.30;23.15;;;0.30;99.90;;;;;;5148066;27;20073;-70
2022/03/04 08:37:45;;;;;;;48.53;23.35;;;0.30;99.90;;;;;;5148499;27;20066;-69
2022/03/04 08:46:23;;;;;;;44.63;21.50;;;0.40;99.90;;;;;;5146766;27;20153;-69
2022/03/04 08:49:19;;;;;;;47.78;22.98;;;0.40;99.90;;;;;;5146001;27;20076;-69
2022/03/04 08:51:56;;;;;;;44.97;22.60;;;0.50;99.90;;;;;;5145342;27;20095;-68
2022/03/04 08:54:27;;;;;;;46.83;24.42;;;0.50;99.90;;;;;;5143276;27;20100;-67
2022/03/04 08:57:57;;;;;;;49.83;24.45;;;0.60;99.90;;;;;;5148051;27;20034;-68
2022/03/04 09:00:55;;;;;;;47.67;23.17;;;0.70;99.90;;;;;;5152057;27;20031;-68
2022/03/04 09:03:43;;;;;;;48.53;24.05;;;0.80;99.90;;;;;;5152055;27;20375;-68
2022/03/04 09:06:34;;;;;;;47.13;24.40;;;0.90;99.90;;;;;;5148830;27;20074;-68
2022/03/04 09:09:11;;;;;;;49.85;24.30;;;1.00;99.90;;;;;;5151521;27;20027;-68
2022/03/04 09:11:52;;;;;;;51.83;25.73;;;1.10;99.90;;;;;;5150227;27;20062;-68
2022/03/04 09:14:28;;;;;;;50.83;25.23;;;1.10;99.90;;;;;;5150892;27;20050;-68
2022/03/04 09:17:01;;;;;;;52.67;26.27;;;1.10;99.90;;;;;;5151155;27;20074;-68
2022/03/04 09:23:11;;;;;;;46.65;24.45;;;0.90;99.90;;;;;;5147638;27;20035;-68
2022/03/04 09:25:52;;;;;;;47.92;25.20;;;0.90;99.90;;;;;;5151665;27;20474;-68
2022/03/04 09:28:24;;;;;;;48.03;24.42;;;1.00;99.90;;;;;;5151840;27;20031;-68
2022/03/04 09:31:19;;;;;;;46.33;24.17;;;1.20;99.90;;;;;;5149639;27;20358;-68
2022/03/04 09:34:19;;;;;;;47.75;24.98;;;1.40;99.90;;;;;;5147559;27;20045;-68
2022/03/04 09:36:58;;;;;;;46.22;24.67;;;1.50;99.90;;;;;;5122250;27;20389;-69
2022/03/04 09:39:30;;;;;;;52.78;25.77;;;1.60;99.90;;;;;;5149331;27;20066;-68
2022/03/04 09:42:24;;;;;;;52.00;25.40;;;1.80;99.90;;;;;;5149874;27;20385;-68
2022/03/04 09:45:31;;;;;;;46.65;24.92;;;1.80;99.90;;;;;;5144974;27;20125;-68
2022/03/04 09:48:07;;;;;;;49.13;25.20;;;1.90;99.90;;;;;;5140234;27;20047;-68
2022/03/04 09:50:41;;;;;;;48.65;24.27;;;2.00;99.90;;;;;;5147702;27;20038;-68
2022/03/04 09:53:53;;;;;;;50.33;25.90;;;2.10;99.90;;;;;;5129978;27;20047;-69
2022/03/04 09:56:49;;;;;;;51.03;25.88;;;2.20;99.90;;;;;;5141886;27;20058;-68
2022/03/04 10:00:06;;;;;;;44.95;23.92;;;2.40;99.90;;;;;;5145061;27;20057;-68
2022/03/04 10:02:44;;;;;;;45.85;23.60;;;2.50;99.90;;;;;;5133606;27;20042;-68
2022/03/04 10:05:27;;;;;;;47.05;24.05;;;2.50;99.90;;;;;;5150422;27;20053;-68
2022/03/04 10:08:25;;;;;;;43.30;22.55;;;2.60;99.90;;;;;;5144755;27;20038;-68
2022/03/04 10:11:07;;;;;;;42.97;23.05;;;2.70;99.90;;;;;;5149201;27;20061;-68
2022/03/04 10:13:52;;;;;;;51.10;26.20;;;2.70;99.90;;;;;;5146986;27;20041;-68
2022/03/04 10:16:31;;;;;;;45.05;24.25;;;2.70;99.90;;;;;;5146526;27;20069;-68
2022/03/04 10:19:33;;;;;;;46.30;24.60;;;2.50;99.90;;;;;;5124339;27;20085;-68
2022/03/04 10:22:47;;;;;;;50.95;26.02;;;2.40;99.90;;;;;;5105733;27;20039;-68
2022/03/04 10:25:36;;;;;;;58.13;27.75;;;2.40;99.90;;;;;;5117216;27;20051;-68
2022/03/04 10:28:49;;;;;;;45.85;24.00;;;2.40;99.90;;;;;;5108125;27;20117;-68
2022/03/04 10:31:20;;;;;;;44.72;22.58;;;2.50;99.90;;;;;;5136216;27;20584;-69
2022/03/04 10:34:25;;;;;;;45.10;23.42;;;2.60;99.90;;;;;;5147005;27;20375;-68
2022/03/04 10:37:05;;;;;;;45.28;23.63;;;2.80;99.90;;;;;;5149877;27;20099;-68
2022/03/04 10:40:28;;;;;;;44.00;23.92;;;2.80;99.90;;;;;;5148075;27;20038;-68
2022/03/04 10:43:26;;;;;;;46.38;24.35;;;2.90;99.90;;;;;;5125284;27;20062;-69
2022/03/04 10:49:41;;;;;;;51.33;24.70;;;3.20;99.90;;;;;;5145913;27;20090;-68
2022/03/04 10:52:29;;;;;;;;;;;3.60;99.90;;;;;;5144504;27;20051;-68
2022/03/04 10:55:13;;;;;;;46.25;22.65;;;3.40;99.90;;;;;;5139978;27;19922;-68
2022/03/04 11:01:10;;;;;;;;;;;;;;;;;;;;;
2022/03/04 11:07:42;;;;;;;43.40;23.75;;;3.60;99.90;;;;;;5114354;27;20046;-69
2022/03/04 11:10:20;;;;;;;46.22;24.15;;;3.70;99.90;;;;;;5145793;27;20146;-69
2022/03/04 11:16:24;;;;;;;44.40;22.42;;;3.70;99.90;;;;;;5139539;27;20043;-68
2022/03/04 11:19:03;;;;;;;42.53;23.80;;;3.70;99.90;;;;;;5142351;27;20054;-69
2022/03/04 11:21:33;;;;;;;44.47;22.83;;;3.80;99.90;;;;;;5147669;27;20106;-68
2022/03/04 11:24:53;;;;;;;42.42;21.80;;;4.00;99.90;;;;;;5148952;27;20054;-68
2022/03/04 11:31:31;;;;;;;39.42;22.35;;;4.10;99.90;;;;;;5116967;27;20047;-68
2022/03/04 11:34:20;;;;;;;45.25;24.52;;;4.20;99.90;;;;;;5149015;27;20038;-68
2022/03/04 11:37:14;;;;;;;44.60;23.42;;;4.20;99.90;;;;;;5147877;27;20047;-68
2022/03/04 11:43:40;;;;;;;43.17;23.80;;;4.20;99.90;;;;;;5149276;27;20175;-69
2022/03/04 11:46:29;;;;;;;44.00;23.03;;;4.30;99.90;;;;;;5148533;27;20183;-68
2022/03/04 11:52:52;;;;;;;41.78;22.52;;;4.30;99.90;;;;;;5138279;27;20455;-68
2022/03/04 11:59:42;;;;;;;42.58;22.85;;;4.50;99.90;;;;;;5105533;28;20036;-68
2022/03/04 12:02:17;;;;;;;44.15;23.48;;;4.60;99.90;;;;;;5115027;27;20050;-68
2022/03/04 12:05:06;;;;;;;39.28;22.40;;;4.70;99.90;;;;;;5148917;27;20065;-68
2022/03/04 12:08:05;;;;;;;39.08;21.73;;;4.80;99.90;;;;;;5133302;27;20070;-68
2022/03/04 12:10:37;;;;;;;39.92;22.20;;;4.90;99.90;;;;;;5148443;27;20106;-68
2022/03/04 12:13:18;;;;;;;38.47;21.40;;;4.90;99.90;;;;;;5147417;27;20059;-68
2022/03/04 12:15:55;;;;;;;38.20;20.40;;;5.00;99.90;;;;;;5143347;27;20050;-68
2022/03/04 12:18:42;;;;;;;36.88;20.52;;;5.00;99.90;;;;;;5146938;27;20169;-69
2022/03/04 12:24:37;;;;;;;35.15;20.45;;;5.10;99.90;;;;;;5146189;27;20038;-69
2022/03/04 12:27:42;;;;;;;34.05;19.70;;;5.20;99.90;;;;;;5163851;27;20046;-69
2022/03/04 12:31:17;;;;;;;40.55;20.88;;;5.30;99.90;;;;;;5156398;27;20054;-69
2022/03/04 12:33:50;;;;;;;34.50;19.77;;;5.30;99.90;;;;;;5098527;27;20050;-69
2022/03/04 12:37:04;;;;;;;36.58;20.15;;;5.40;99.90;;;;;;5147089;27;20513;-68
2022/03/04 12:40:01;;;;;;;34.17;19.60;;;5.50;99.90;;;;;;5147169;27;20135;-67
2022/03/04 12:42:37;;;;;;;34.65;19.05;;;5.50;99.90;;;;;;5150666;27;20283;-69
2022/03/04 12:45:15;;;;;;;33.05;18.73;;;5.60;99.90;;;;;;5147763;27;20047;-69
2022/03/04 12:47:58;;;;;;;30.55;18.88;;;5.70;99.90;;;;;;5151242;27;20086;-69
2022/03/04 12:50:42;;;;;;;31.55;18.38;;;5.70;99.90;;;;;;5147543;27;20038;-69
2022/03/04 12:53:35;;;;;;;32.00;18.48;;;5.70;99.90;;;;;;5151691;27;20121;-69
2022/03/04 12:56:13;;;;;;;29.92;16.70;;;5.70;99.90;;;;;;5151717;27;20043;-69
2022/03/04 12:59:17;;;;;;;30.15;17.42;;;5.80;99.90;;;;;;5152144;27;20091;-68
2022/03/04 13:04:58;;;;;;;33.05;18.80;;;5.90;99.90;;;;;;5151068;27;20066;-69
2022/03/04 13:08:02;;;;;;;33.15;18.75;;;6.00;99.90;;;;;;5134312;27;20355;-69
2022/03/04 13:10:49;;;;;;;33.35;18.58;;;6.00;99.90;;;;;;5146357;27;20092;-69
2022/03/04 13:13:37;;;;;;;28.95;17.10;;;6.00;99.90;;;;;;5133358;27;20081;-69
2022/03/04 13:16:38;;;;;;;28.50;16.98;;;6.10;99.90;;;;;;5127876;27;20070;-69
2022/03/04 13:19:17;;;;;;;26.90;16.42;;;6.20;99.90;;;;;;5150089;27;20705;-68
2022/03/04 13:21:59;;;;;;;30.70;17.42;;;6.20;99.90;;;;;;5150243;27;20462;-69
2022/03/04 13:25:03;;;;;;;27.63;16.02;;;6.30;99.90;;;;;;5147525;27;20091;-69
2022/03/04 13:28:18;;;;;;;26.30;14.52;;;6.30;99.90;;;;;;5149821;27;20131;-70
2022/03/04 13:31:36;;;;;;;23.48;14.20;;;6.30;99.90;;;;;;5150024;27;20034;-69
2022/03/04 13:34:13;;;;;;;24.92;14.80;;;6.40;99.90;;;;;;5133868;27;20070;-69
2022/03/04 13:37:02;;;;;;;21.95;13.45;;;6.50;99.90;;;;;;5145864;27;20062;-69
2022/03/04 13:39:44;;;;;;;21.70;12.30;;;6.50;99.90;;;;;;5144088;27;20552;-68
2022/03/04 13:45:30;;;;;;;21.75;13.73;;;6.70;99.90;;;;;;5149073;27;20043;-68
2022/03/04 13:48:24;;;;;;;21.63;12.82;;;6.80;99.90;;;;;;5134187;27;20045;-69
2022/03/04 13:51:02;;;;;;;;;;;6.80;99.90;;;;;;5149024;27;20065;-69
2022/03/04 13:54:13;;;;;;;;;;;;;;;;;;;;;
2022/03/04 13:56:45;;;;;;;19.90;11.63;;;6.90;99.90;;;;;;5147105;27;20074;-69
2022/03/04 13:59:58;;;;;;;18.08;10.52;;;6.90;99.90;;;;;;5125907;27;20055;-69
2022/03/04 14:02:26;;;;;;;17.77;10.63;;;7.00;99.90;;;;;;5125379;27;20057;-69
2022/03/04 14:05:02;;;;;;;;;;;7.00;99.90;;;;;;5109390;27;20072;-69
2022/03/04 14:07:46;;;;;;;15.65;9.80;;;7.00;99.90;;;;;;5125849;27;19992;-69
2022/03/04 14:10:45;;;;;;;20.52;9.90;;;7.00;99.90;;;;;;5107484;27;20426;-69
2022/03/04 14:13:46;;;;;;;16.42;9.90;;;7.00;99.90;;;;;;5108508;27;20066;-70
2022/03/04 14:16:25;;;;;;;17.35;10.90;;;7.00;99.90;;;;;;5120656;27;20092;-69
2022/03/04 14:22:20;;;;;;;20.17;11.05;;;7.10;99.90;;;;;;5045468;28;20127;-69
2022/03/04 14:27:48;;;;;;;20.83;12.32;;;7.30;99.90;;;;;;5048986;28;20044;-69
2022/03/04 14:30:21;;;;;;;22.10;12.75;;;7.30;99.90;;;;;;5050012;28;20136;-69
2022/03/04 14:33:12;;;;;;;19.85;11.75;;;7.30;99.90;;;;;;5062749;28;20048;-69
2022/03/04 14:35:55;;;;;;;20.83;11.80;;;7.30;99.90;;;;;;5065617;28;20048;-69
2022/03/04 14:39:01;;;;;;;23.88;13.13;;;7.40;99.90;;;;;;5103747;28;20062;-70
2022/03/04 14:44:57;;;;;;;21.80;11.98;;;7.30;99.90;;;;;;5086138;28;20051;-69
2022/03/04 14:47:40;;;;;;;23.38;12.77;;;7.30;99.90;;;;;;5089313;28;20039;-69
2022/03/04 14:50:09;;;;;;;21.85;12.65;;;7.30;99.90;;;;;;5125821;27;20042;-69
2022/03/04 14:53:02;;;;;;;21.85;11.98;;;7.30;99.90;;;;;;5147061;27;20099;-69
2022/03/04 14:55:42;;;;;;;25.20;14.27;;;7.30;99.90;;;;;;5111345;27;20046;-69
2022/03/04 14:58:22;;;;;;;24.65;13.38;;;7.20;99.90;;;;;;5146480;27;20035;-66
2022/03/04 15:01:14;;;;;;;26.08;13.65;;;7.20;99.90;;;;;;5143282;27;20051;-69
2022/03/04 15:07:23;;;;;;;29.02;15.43;;;7.30;99.90;;;;;;5038165;28;20055;-69
2022/03/04 15:10:28;;;;;;;25.60;15.57;;;7.40;99.90;;;;;;5048500;28;20132;-69
2022/03/04 15:16:34;;;;;;;31.02;16.17;;;7.30;99.90;;;;;;5147212;27;20125;-69
2022/03/04 15:19:28;;;;;;;27.90;15.73;;;7.30;99.90;;;;;;5147987;27;20051;-69
2022/03/04 15:22:09;;;;;;;29.63;16.35;;;7.30;99.90;;;;;;5131538;27;20094;-69
2022/03/04 15:24:50;;;;;;;25.50;15.02;;;7.30;99.90;;;;;;5145722;27;20047;-69
2022/03/04 15:27:34;;;;;;;25.13;14.13;;;7.40;99.90;;;;;;5147076;27;20468;-69
2022/03/04 15:30:16;;;;;;;26.83;15.43;;;7.40;99.90;;;;;;5141001;27;20487;-69
2022/03/04 15:32:51;;;;;;;26.23;14.32;;;7.40;99.90;;;;;;5140202;27;20067;-69
2022/03/04 15:35:43;;;;;;;23.40;13.57;;;7.40;99.90;;;;;;5147596;27;20047;-69
2022/03/04 15:38:16;;;;;;;23.90;14.52;;;7.40;99.90;;;;;;5135717;27;20035;-68
2022/03/04 15:40:54;;;;;;;23.63;13.93;;;7.40;99.90;;;;;;5142012;27;20491;-68
2022/03/04 15:43:23;;;;;;;26.73;15.00;;;7.40;99.90;;;;;;5146318;27;20046;-69
2022/03/04 15:46:00;;;;;;;24.08;14.45;;;7.40;99.90;;;;;;5147673;27;20502;-69
2022/03/04 15:48:57;;;;;;;23.60;14.15;;;7.30;99.90;;;;;;5145702;27;20416;-69
2022/03/04 15:52:14;;;;;;;23.58;14.02;;;7.30;99.90;;;;;;5146898;27;20038;-69
2022/03/04 15:55:18;;;;;;;23.10;13.80;;;7.30;99.90;;;;;;5147101;27;20101;-68
2022/03/04 16:00:43;;;;;;;23.27;13.90;;;7.30;99.90;;;;;;5141527;27;20042;-69
2022/03/04 16:06:05;;;;;;;23.98;14.35;;;7.20;99.90;;;;;;5143951;27;20123;-69
2022/03/04 16:08:47;;;;;;;23.55;14.07;;;7.20;99.90;;;;;;5146615;27;20475;-69
2022/03/04 16:11:15;;;;;;;25.52;14.05;;;7.20;99.90;;;;;;5144318;27;20057;-68
2022/03/04 16:13:52;;;;;;;23.85;14.32;;;7.20;99.90;;;;;;5147229;27;20058;-69
2022/03/04 16:16:27;;;;;;;22.75;13.73;;;7.20;99.90;;;;;;5141696;27;20195;-69
2022/03/04 16:19:07;;;;;;;21.17;13.88;;;7.10;99.90;;;;;;5146739;27;20525;-69